Time;durP1;ratioP1;P1;durP2;ratioP2;P2;SDS_P1;SDS_P2;PMS_P1;PMS_P2;Temp;Humidity;BMP_temperature;BMP_pressure;BME280_temperature;BME280_humidity;BME280_pressure;Samples;Min_cycle;Max_cycle;Signal;HPM_P1;HPM_P2
2022/03/09 07:36:58;;;;;;;14.93;5.95;;;1.20;99.90;;;;;;5089423;28;20447;-80
2022/03/09 07:39:26;;;;;;;11.80;6.05;;;1.40;99.90;;;;;;5074520;28;20442;-81
2022/03/09 07:41:53;;;;;;;12.55;6.10;;;1.60;99.90;;;;;;5069683;28;20044;-80
2022/03/09 07:44:19;;;;;;;12.60;6.30;;;1.60;99.90;;;;;;5054881;28;20136;-81
2022/03/09 07:46:45;;;;;;;13.45;5.80;;;1.90;99.90;;;;;;5048676;28;20140;-80
2022/03/09 07:49:10;;;;;;;11.20;5.75;;;2.00;99.90;;;;;;5048305;28;20110;-80
2022/03/09 07:51:36;;;;;;;13.10;6.32;;;2.10;99.90;;;;;;5048392;28;20043;-81
2022/03/09 07:54:01;;;;;;;12.65;5.75;;;2.30;99.90;;;;;;5051429;28;20036;-80
2022/03/09 07:56:27;;;;;;;15.63;5.32;;;2.40;99.90;;;;;;5046414;28;20088;-81
2022/03/09 07:58:53;;;;;;;12.68;5.95;;;2.40;99.90;;;;;;5068211;28;20087;-81
2022/03/09 08:01:18;;;;;;;11.63;5.22;;;2.40;99.90;;;;;;5068056;28;20048;-81
2022/03/09 08:03:44;;;;;;;10.43;4.85;;;2.40;99.90;;;;;;5068158;28;20055;-81
2022/03/09 08:06:10;;;;;;;10.23;5.60;;;2.50;99.90;;;;;;5067651;28;20106;-80
2022/03/09 08:08:36;;;;;;;10.07;5.18;;;2.60;99.90;;;;;;5069899;28;20045;-80
2022/03/09 08:11:02;;;;;;;11.60;6.25;;;2.80;99.90;;;;;;5070162;28;20159;-80
2022/03/09 08:13:28;;;;;;;10.75;5.32;;;2.80;99.90;;;;;;5068884;28;20073;-80
2022/03/09 08:15:53;;;;;;;9.57;5.20;;;2.90;99.90;;;;;;5070009;28;20094;-81
2022/03/09 08:18:19;;;;;;;9.95;5.65;;;3.00;99.90;;;;;;5069975;28;20490;-81
2022/03/09 08:20:44;;;;;;;9.77;5.07;;;3.10;99.90;;;;;;5069897;28;20040;-80
2022/03/09 08:23:10;;;;;;;10.27;5.25;;;3.20;99.90;;;;;;5069632;28;20099;-81
2022/03/09 08:25:36;;;;;;;12.98;6.32;;;3.60;99.90;;;;;;5069999;28;20055;-81
2022/03/09 08:28:02;;;;;;;9.93;5.00;;;3.50;99.90;;;;;;5068510;28;20410;-81
2022/03/09 08:30:28;;;;;;;8.95;5.47;;;3.50;99.90;;;;;;5068914;28;20539;-81
2022/03/09 08:32:53;;;;;;;12.75;6.38;;;3.70;99.90;;;;;;5069817;28;20068;-81
2022/03/09 08:35:19;;;;;;;8.93;5.20;;;3.80;99.90;;;;;;5069278;28;20061;-81
2022/03/09 08:37:45;;;;;;;11.07;5.78;;;4.50;99.90;;;;;;5069571;28;20495;-80
2022/03/09 08:40:11;;;;;;;10.27;5.70;;;4.30;99.90;;;;;;5069598;28;20095;-81
2022/03/09 08:42:37;;;;;;;10.90;5.35;;;4.40;99.90;;;;;;5069318;28;20040;-81
2022/03/09 08:45:03;;;;;;;12.38;5.10;;;4.40;99.90;;;;;;5067992;28;20049;-81
2022/03/09 08:47:29;;;;;;;10.13;5.65;;;4.60;99.90;;;;;;5060826;28;20037;-80
2022/03/09 08:49:55;;;;;;;8.95;4.60;;;4.70;95.90;;;;;;5055963;28;20044;-81
2022/03/09 08:52:20;;;;;;;9.32;5.00;;;4.80;95.20;;;;;;5055910;28;20041;-81
2022/03/09 08:54:46;;;;;;;11.48;6.05;;;5.00;95.30;;;;;;5056077;28;20049;-81
2022/03/09 08:57:13;;;;;;;13.35;5.05;;;5.00;96.10;;;;;;5055894;28;20045;-81
2022/03/09 08:59:39;;;;;;;9.65;5.18;;;5.10;93.40;;;;;;5056258;28;20045;-81
2022/03/09 09:02:05;;;;;;;10.82;5.47;;;5.40;85.90;;;;;;5055934;28;20040;-81
2022/03/09 09:04:33;;;;;;;9.20;5.07;;;5.40;82.70;;;;;;5055767;28;20049;-81
2022/03/09 09:06:59;;;;;;;10.85;5.25;;;5.40;82.30;;;;;;5055568;28;20052;-81
2022/03/09 09:09:24;;;;;;;8.30;4.40;;;5.60;84.30;;;;;;5055454;28;20430;-81
2022/03/09 09:11:50;;;;;;;10.02;5.80;;;5.70;79.00;;;;;;5055329;28;20066;-81
2022/03/09 09:14:16;;;;;;;16.60;5.57;;;5.70;79.00;;;;;;5055795;28;20040;-81
2022/03/09 09:16:43;;;;;;;11.88;5.93;;;6.00;73.20;;;;;;5055616;28;20086;-81
2022/03/09 09:19:09;;;;;;;11.02;5.13;;;6.10;73.50;;;;;;5055585;28;20430;-81
2022/03/09 09:21:35;;;;;;;11.75;5.78;;;6.10;72.90;;;;;;5055277;28;20041;-81
2022/03/09 09:24:01;;;;;;;8.70;4.60;;;6.20;76.70;;;;;;5055385;28;20049;-81
2022/03/09 09:26:26;;;;;;;9.45;4.72;;;6.30;71.40;;;;;;5055443;28;20045;-81
2022/03/09 09:28:52;;;;;;;9.65;5.65;;;6.40;70.10;;;;;;5055252;28;20041;-81
2022/03/09 09:31:18;;;;;;;11.70;5.18;;;6.50;71.90;;;;;;5055117;28;20072;-81
2022/03/09 09:33:43;;;;;;;12.18;5.82;;;6.60;69.10;;;;;;5055302;28;20122;-81
2022/03/09 09:36:09;;;;;;;8.80;4.65;;;6.70;69.10;;;;;;5055090;28;20483;-81
2022/03/09 09:38:35;;;;;;;9.63;4.68;;;6.80;65.90;;;;;;5055188;28;20116;-81
2022/03/09 09:41:01;;;;;;;8.50;5.10;;;6.90;62.00;;;;;;5053760;28;20044;-81
2022/03/09 09:43:27;;;;;;;10.63;4.90;;;7.10;58.00;;;;;;5055482;28;20123;-81
2022/03/09 09:45:52;;;;;;;11.35;5.03;;;7.30;52.60;;;;;;5055143;28;20119;-81
2022/03/09 09:48:19;;;;;;;9.40;4.70;;;7.40;47.90;;;;;;5055545;28;20103;-81
2022/03/09 09:50:46;;;;;;;11.05;4.68;;;7.60;46.10;;;;;;5054392;28;20091;-81
2022/03/09 09:53:14;;;;;;;11.57;5.00;;;7.60;50.50;;;;;;5054990;28;20045;-81
2022/03/09 09:55:41;;;;;;;8.63;5.20;;;7.60;50.10;;;;;;5054771;28;20045;-81
2022/03/09 09:58:08;;;;;;;9.57;5.20;;;7.80;45.70;;;;;;5054277;28;20052;-81
2022/03/09 10:00:34;;;;;;;13.18;4.97;;;8.10;44.70;;;;;;5054613;28;20068;-81
2022/03/09 10:03:00;;;;;;;12.10;6.25;;;8.40;40.20;;;;;;5054728;28;20037;-81
2022/03/09 10:05:25;;;;;;;12.07;5.90;;;8.70;40.40;;;;;;5053585;28;20052;-81
2022/03/09 10:08:03;;;;;;;9.13;5.40;;;8.80;41.20;;;;;;5054880;28;20037;-81
2022/03/09 10:10:30;;;;;;;9.20;4.85;;;9.00;39.80;;;;;;5054692;28;20079;-81
2022/03/09 10:13:16;;;;;;;9.48;5.45;;;9.30;41.40;;;;;;5054679;28;20120;-81
2022/03/09 10:15:43;;;;;;;10.55;5.40;;;9.50;38.10;;;;;;5054361;28;20041;-81
2022/03/09 10:18:17;;;;;;;9.50;5.00;;;9.70;40.00;;;;;;5054513;28;20056;-81
2022/03/09 10:20:44;;;;;;;15.45;6.07;;;10.00;36.40;;;;;;5054377;28;20123;-81
2022/03/09 10:23:10;;;;;;;12.35;6.15;;;10.00;37.60;;;;;;5054260;28;20363;-81
2022/03/09 10:25:38;;;;;;;16.42;5.93;;;10.40;34.00;;;;;;5054542;28;20048;-81
2022/03/09 10:28:11;;;;;;;9.15;5.97;;;10.60;32.70;;;;;;5054333;28;20130;-81
2022/03/09 10:30:39;;;;;;;10.65;6.50;;;10.60;32.50;;;;;;5054584;28;20135;-82
2022/03/09 10:33:12;;;;;;;10.50;5.22;;;10.60;32.20;;;;;;5054051;28;20049;-82
2022/03/09 10:35:46;;;;;;;9.80;5.53;;;10.70;32.30;;;;;;5053766;28;20437;-82
2022/03/09 10:38:14;;;;;;;12.27;7.03;;;10.80;29.20;;;;;;5054016;28;20049;-81
2022/03/09 10:40:47;;;;;;;8.90;5.60;;;11.10;30.50;;;;;;5053782;28;20045;-81
2022/03/09 10:43:21;;;;;;;12.55;6.50;;;11.00;29.40;;;;;;5052816;28;20048;-81
2022/03/09 10:45:57;;;;;;;9.93;6.10;;;11.10;30.50;;;;;;5035890;28;20048;-82
2022/03/09 10:48:22;;;;;;;9.60;5.60;;;11.00;28.40;;;;;;5053876;28;20037;-82
2022/03/09 10:50:52;;;;;;;9.27;5.60;;;11.00;28.50;;;;;;5052377;28;20047;-82
2022/03/09 10:53:18;;;;;;;9.40;6.07;;;11.60;30.00;;;;;;5036025;28;20479;-81
2022/03/09 10:55:44;;;;;;;10.60;5.65;;;11.80;26.80;;;;;;5035809;28;20122;-81
2022/03/09 10:58:09;;;;;;;9.07;6.15;;;11.90;26.70;;;;;;5052130;28;20037;-82
2022/03/09 11:00:53;;;;;;;9.95;6.78;;;12.10;25.10;;;;;;5052511;28;20057;-82
2022/03/09 11:03:24;;;;;;;8.82;5.90;;;11.70;26.30;;;;;;5052341;28;20107;-82
2022/03/09 11:05:54;;;;;;;8.52;5.88;;;11.40;27.10;;;;;;5053785;28;20088;-81
2022/03/09 11:08:22;;;;;;;11.18;5.95;;;11.40;27.50;;;;;;5053647;28;20491;-82
2022/03/09 11:10:48;;;;;;;13.95;6.38;;;11.60;28.70;;;;;;5053298;28;20045;-82
2022/03/09 11:13:14;;;;;;;8.20;5.60;;;11.50;28.60;;;;;;5053388;28;20368;-82
2022/03/09 11:15:42;;;;;;;8.60;5.30;;;11.40;28.00;;;;;;5053294;28;20041;-81
2022/03/09 11:18:12;;;;;;;10.32;6.03;;;11.90;28.00;;;;;;5035850;28;20101;-82
2022/03/09 11:20:38;;;;;;;10.23;5.93;;;11.80;27.40;;;;;;5035749;28;20049;-82
2022/03/09 11:23:04;;;;;;;11.65;6.07;;;11.60;28.50;;;;;;5053658;28;20090;-81
2022/03/09 11:25:30;;;;;;;11.18;6.75;;;11.90;26.90;;;;;;5052164;28;20053;-82
2022/03/09 11:27:57;;;;;;;10.95;6.03;;;12.10;26.80;;;;;;5053258;28;20116;-82
2022/03/09 11:30:28;;;;;;;14.30;6.35;;;12.20;27.70;;;;;;5053407;28;20052;-82
2022/03/09 11:32:55;;;;;;;10.55;6.45;;;12.30;27.90;;;;;;5053203;28;20041;-81
2022/03/09 11:35:32;;;;;;;9.25;5.63;;;12.20;29.20;;;;;;5035064;28;20097;-82
2022/03/09 11:37:58;;;;;;;10.20;6.28;;;12.30;29.40;;;;;;5052128;28;20045;-81
2022/03/09 11:40:24;;;;;;;10.90;6.30;;;12.20;27.90;;;;;;5053420;28;20052;-82
2022/03/09 11:42:50;;;;;;;9.30;6.03;;;12.20;28.90;;;;;;5035431;28;20049;-82
2022/03/09 11:45:22;;;;;;;11.50;6.38;;;12.10;28.10;;;;;;5052079;28;20059;-81
2022/03/09 11:48:12;;;;;;;9.05;6.20;;;12.00;28.10;;;;;;5053175;28;20495;-81
2022/03/09 11:50:46;;;;;;;10.13;5.78;;;11.50;28.40;;;;;;5051949;28;20530;-81
2022/03/09 11:53:14;;;;;;;10.00;5.53;;;11.50;29.80;;;;;;5035322;28;20052;-81
2022/03/09 11:55:40;;;;;;;10.02;5.78;;;11.70;31.10;;;;;;5052661;28;20040;-82
2022/03/09 11:58:13;;;;;;;11.88;6.55;;;11.70;28.80;;;;;;5052047;28;20049;-82
2022/03/09 12:00:59;;;;;;;10.20;6.90;;;11.70;30.00;;;;;;5052959;28;20045;-82
2022/03/09 12:03:39;;;;;;;11.32;5.97;;;12.00;27.90;;;;;;5052029;28;20060;-82
2022/03/09 12:06:05;;;;;;;11.18;6.57;;;12.20;28.60;;;;;;5052697;28;20847;-82
2022/03/09 12:08:45;;;;;;;8.80;5.93;;;12.10;29.20;;;;;;5051543;28;20045;-81
2022/03/09 12:11:11;;;;;;;10.23;6.32;;;12.40;29.20;;;;;;5052993;28;20041;-82
2022/03/09 12:13:46;;;;;;;9.88;6.05;;;12.60;28.00;;;;;;5035294;28;20128;-82
2022/03/09 12:16:18;;;;;;;9.13;5.78;;;12.30;28.40;;;;;;5053107;28;20116;-81
2022/03/09 12:19:10;;;;;;;11.43;6.13;;;12.50;28.20;;;;;;5052987;28;20071;-82
2022/03/09 12:21:37;;;;;;;12.02;6.32;;;12.40;29.20;;;;;;5050786;28;20072;-81
2022/03/09 12:24:06;;;;;;;8.68;5.35;;;12.30;28.70;;;;;;5056607;28;20446;-82
2022/03/09 12:26:42;;;;;;;10.25;5.72;;;12.60;29.20;;;;;;5055408;28;20128;-81
2022/03/09 12:29:20;;;;;;;9.80;5.93;;;12.60;28.40;;;;;;5056499;28;20517;-82
2022/03/09 12:31:46;;;;;;;14.13;7.32;;;12.40;28.00;;;;;;5055327;28;20049;-82
2022/03/09 12:34:24;;;;;;;9.00;6.47;;;12.50;27.80;;;;;;5055636;28;20049;-82
2022/03/09 12:36:49;;;;;;;8.60;5.65;;;12.60;27.20;;;;;;5054306;28;20057;-81
2022/03/09 12:39:16;;;;;;;9.43;5.88;;;12.40;26.60;;;;;;5054976;28;20055;-81
2022/03/09 12:41:42;;;;;;;8.43;5.30;;;12.50;27.00;;;;;;5054952;28;20096;-82
2022/03/09 12:44:10;;;;;;;9.90;5.93;;;12.60;26.50;;;;;;5056374;28;20528;-81
2022/03/09 12:46:39;;;;;;;11.00;6.10;;;12.50;26.30;;;;;;5056155;28;20041;-81
2022/03/09 12:49:13;;;;;;;12.85;6.55;;;12.90;25.40;;;;;;5056228;28;20529;-82
2022/03/09 12:51:50;;;;;;;11.15;5.68;;;13.00;24.40;;;;;;5056385;28;20403;-82
2022/03/09 12:54:37;;;;;;;10.13;6.30;;;13.10;24.00;;;;;;5054744;28;20049;-82
2022/03/09 12:57:29;;;;;;;12.00;6.72;;;13.10;23.60;;;;;;5052115;28;20110;-81
2022/03/09 13:00:04;;;;;;;11.90;6.25;;;13.20;23.30;;;;;;5055998;28;20098;-82
2022/03/09 13:03:00;;;;;;;14.98;6.35;;;13.30;23.00;;;;;;5054651;28;20041;-81
2022/03/09 13:05:30;;;;;;;10.80;6.18;;;13.10;23.10;;;;;;5050157;28;20061;-82
2022/03/09 13:08:06;;;;;;;14.65;7.53;;;13.20;22.50;;;;;;5055162;28;20041;-82
2022/03/09 13:10:41;;;;;;;10.80;6.50;;;13.20;21.40;;;;;;5055092;28;20033;-82
2022/03/09 13:13:06;;;;;;;9.98;6.32;;;13.60;22.20;;;;;;5055526;28;20041;-82
2022/03/09 13:15:48;;;;;;;8.48;5.63;;;13.90;21.50;;;;;;5055736;28;20052;-82
2022/03/09 13:18:24;;;;;;;12.55;6.10;;;14.10;20.70;;;;;;5055210;28;20048;-82
2022/03/09 13:20:50;;;;;;;9.57;6.00;;;14.40;20.90;;;;;;5054975;28;20124;-81
2022/03/09 13:23:27;;;;;;;10.85;5.57;;;14.70;19.90;;;;;;5055812;28;20467;-82
2022/03/09 13:25:53;;;;;;;8.90;6.05;;;14.40;19.00;;;;;;5056610;28;20072;-82
2022/03/09 13:28:29;;;;;;;9.85;6.20;;;14.30;19.50;;;;;;5056413;28;20450;-81
2022/03/09 13:30:55;;;;;;;11.73;6.63;;;14.30;18.80;;;;;;5054317;28;20083;-81
2022/03/09 13:33:22;;;;;;;10.05;5.90;;;13.80;18.90;;;;;;5055318;28;20041;-82
2022/03/09 13:35:50;;;;;;;13.27;6.75;;;14.10;19.30;;;;;;5054864;28;20056;-81
2022/03/09 13:38:21;;;;;;;9.88;6.15;;;13.70;19.20;;;;;;5055618;28;20053;-81
2022/03/09 13:40:47;;;;;;;10.52;5.90;;;14.00;19.90;;;;;;5056303;28;20072;-82
2022/03/09 13:43:12;;;;;;;10.63;6.38;;;14.30;20.40;;;;;;5056588;28;20048;-82
2022/03/09 13:45:40;;;;;;;9.75;5.72;;;14.40;19.50;;;;;;5056053;28;20626;-82
2022/03/09 13:48:18;;;;;;;12.00;6.90;;;14.60;20.10;;;;;;5056346;28;20060;-82
2022/03/09 13:50:48;;;;;;;7.85;5.82;;;14.20;18.30;;;;;;5055732;28;20052;-82
2022/03/09 13:53:14;;;;;;;7.40;5.00;;;14.30;18.50;;;;;;5056566;28;20499;-79
2022/03/09 13:55:41;;;;;;;12.15;5.85;;;14.80;19.20;;;;;;5055969;28;20434;-80
2022/03/09 13:58:15;;;;;;;14.40;5.88;;;15.00;19.30;;;;;;5056529;28;20671;-79
2022/03/09 14:00:43;;;;;;;8.90;5.57;;;15.50;17.50;;;;;;5055850;28;20376;-79
2022/03/09 14:03:14;;;;;;;10.10;6.20;;;15.00;17.70;;;;;;5055574;28;20036;-79
2022/03/09 14:05:42;;;;;;;13.88;6.50;;;15.60;17.80;;;;;;5054838;28;20048;-79
2022/03/09 14:08:09;;;;;;;8.50;5.65;;;15.60;17.90;;;;;;5055482;28;20048;-79
2022/03/09 14:10:36;;;;;;;9.75;6.40;;;16.00;17.10;;;;;;5054720;28;20041;-79
2022/03/09 14:13:21;;;;;;;10.20;5.65;;;15.90;16.60;;;;;;5054877;28;20045;-79
2022/03/09 14:15:47;;;;;;;7.85;5.63;;;15.70;16.10;;;;;;5054604;28;20051;-79
2022/03/09 14:18:13;;;;;;;8.32;5.55;;;16.10;16.40;;;;;;5055157;28;20049;-79
2022/03/09 14:20:40;;;;;;;7.80;5.78;;;16.60;16.20;;;;;;5054356;28;20064;-80
2022/03/09 14:23:07;;;;;;;10.10;5.78;;;16.20;16.60;;;;;;5053870;28;20120;-79
2022/03/09 14:25:34;;;;;;;10.02;5.97;;;16.90;16.60;;;;;;5054483;28;20049;-79
2022/03/09 14:27:59;;;;;;;8.38;5.90;;;16.70;15.10;;;;;;5054377;28;20388;-79
2022/03/09 14:30:25;;;;;;;8.38;6.03;;;16.80;14.30;;;;;;5054812;28;20090;-80
2022/03/09 14:32:51;;;;;;;10.07;6.95;;;17.00;14.40;;;;;;5054005;28;20048;-79
2022/03/09 14:35:16;;;;;;;10.38;6.65;;;17.70;14.70;;;;;;5053362;28;20191;-80
2022/03/09 14:37:52;;;;;;;16.38;7.43;;;18.40;13.30;;;;;;5053636;28;20488;-79
2022/03/09 14:40:22;;;;;;;11.88;6.40;;;18.40;13.60;;;;;;5053833;28;20049;-79
2022/03/09 14:42:49;;;;;;;12.20;7.03;;;18.60;12.30;;;;;;5053731;28;20045;-80
2022/03/09 14:45:15;;;;;;;14.30;7.47;;;18.30;12.20;;;;;;5051641;28;20052;-79
2022/03/09 14:47:45;;;;;;;9.65;6.80;;;18.10;12.40;;;;;;5052365;28;20045;-80
2022/03/09 14:50:11;;;;;;;10.55;6.75;;;18.00;13.10;;;;;;5053735;28;20124;-80
2022/03/09 14:52:38;;;;;;;10.77;7.07;;;18.10;13.50;;;;;;5053632;28;20037;-80
2022/03/09 14:55:04;;;;;;;13.75;7.10;;;17.80;12.60;;;;;;5053153;28;20499;-80
2022/03/09 14:57:30;;;;;;;10.63;6.80;;;18.00;12.80;;;;;;5053522;28;20045;-80
2022/03/09 14:59:56;;;;;;;10.88;7.53;;;18.30;12.10;;;;;;5053482;28;20041;-80
2022/03/09 15:02:22;;;;;;;12.80;6.97;;;17.60;12.80;;;;;;5053802;28;20072;-80
2022/03/09 15:04:47;;;;;;;11.90;6.85;;;18.20;12.80;;;;;;5053158;28;20037;-80
2022/03/09 15:07:13;;;;;;;10.50;7.20;;;18.10;13.40;;;;;;5052794;28;20132;-80
2022/03/09 15:09:38;;;;;;;10.15;6.60;;;18.20;12.70;;;;;;5053270;28;20080;-80
2022/03/09 15:12:07;;;;;;;11.00;7.47;;;18.50;12.20;;;;;;5053300;28;20033;-80
2022/03/09 15:14:33;;;;;;;10.65;7.00;;;18.10;13.10;;;;;;5053404;28;20041;-80
2022/03/09 15:16:59;;;;;;;11.50;7.38;;;18.30;12.60;;;;;;5053097;28;20041;-80
2022/03/09 15:19:26;;;;;;;13.48;7.22;;;18.20;12.20;;;;;;5053292;28;20106;-80
2022/03/09 15:21:55;;;;;;;10.32;7.15;;;18.10;12.30;;;;;;5051850;28;20052;-80
2022/03/09 15:24:21;;;;;;;12.70;7.32;;;17.90;13.20;;;;;;5053308;28;20045;-80
2022/03/09 15:26:47;;;;;;;9.88;6.63;;;18.00;13.60;;;;;;5052970;28;20041;-80
2022/03/09 15:29:14;;;;;;;10.30;6.70;;;18.00;13.30;;;;;;5053154;28;20056;-80
2022/03/09 15:31:41;;;;;;;10.10;6.45;;;17.80;13.20;;;;;;5052965;28;20037;-80
2022/03/09 15:34:06;;;;;;;12.25;7.05;;;18.00;13.00;;;;;;5053300;28;20033;-80
2022/03/09 15:36:32;;;;;;;10.98;7.57;;;18.30;13.00;;;;;;5053170;28;20049;-80
2022/03/09 15:38:59;;;;;;;11.90;7.53;;;17.80;12.80;;;;;;5053116;28;20045;-80
2022/03/09 15:41:25;;;;;;;12.02;6.85;;;17.90;13.10;;;;;;5053045;28;20113;-80
2022/03/09 15:43:52;;;;;;;9.15;6.60;;;17.80;12.70;;;;;;5052844;28;20045;-80
2022/03/09 15:46:19;;;;;;;12.05;7.53;;;17.00;12.40;;;;;;5052698;28;20048;-80
2022/03/09 15:48:44;;;;;;;10.38;7.05;;;16.80;13.10;;;;;;5052402;28;20048;-80
2022/03/09 15:51:10;;;;;;;13.75;8.13;;;17.40;12.60;;;;;;5052822;28;20484;-80
2022/03/09 15:53:36;;;;;;;11.98;7.07;;;17.60;12.10;;;;;;5053151;28;20041;-80
2022/03/09 15:56:01;;;;;;;14.48;8.45;;;17.30;12.80;;;;;;5053069;28;20041;-80
2022/03/09 15:58:28;;;;;;;14.38;7.50;;;17.20;13.20;;;;;;5056370;28;20043;-80
2022/03/09 16:00:54;;;;;;;11.50;8.18;;;17.30;12.40;;;;;;5057121;28;20262;-79
2022/03/09 16:03:19;;;;;;;13.00;7.53;;;17.40;12.60;;;;;;5056857;28;20083;-79
2022/03/09 16:05:47;;;;;;;13.85;7.88;;;17.20;12.80;;;;;;5056658;28;20453;-80
2022/03/09 16:08:13;;;;;;;11.38;7.38;;;16.90;13.60;;;;;;5056589;28;20388;-80
2022/03/09 16:10:39;;;;;;;10.57;6.55;;;17.10;13.30;;;;;;5056733;28;20111;-80
2022/03/09 16:13:04;;;;;;;9.60;6.97;;;16.90;13.70;;;;;;5055746;28;20037;-80
2022/03/09 16:15:30;;;;;;;11.55;7.88;;;17.00;13.50;;;;;;5056700;28;20475;-79
2022/03/09 16:17:56;;;;;;;12.55;8.00;;;16.80;13.40;;;;;;5056653;28;20040;-79
2022/03/09 16:20:22;;;;;;;17.15;8.23;;;16.70;13.60;;;;;;5056603;28;20024;-79
2022/03/09 16:22:48;;;;;;;12.07;7.95;;;16.60;13.70;;;;;;5056811;28;20043;-80
2022/03/09 16:25:14;;;;;;;10.43;7.30;;;16.40;14.00;;;;;;5056828;28;20433;-80
2022/03/09 16:27:40;;;;;;;12.70;6.70;;;16.10;14.30;;;;;;5056036;28;20037;-80
2022/03/09 16:30:07;;;;;;;12.15;6.90;;;16.00;14.80;;;;;;5054048;28;20087;-79
2022/03/09 16:32:34;;;;;;;13.32;7.00;;;16.10;14.70;;;;;;5053652;28;20064;-80
2022/03/09 16:35:03;;;;;;;11.18;6.72;;;15.20;15.20;;;;;;5053059;28;20103;-79
2022/03/09 16:37:29;;;;;;;10.32;6.80;;;15.00;16.00;;;;;;5042630;28;20041;-79
2022/03/09 16:39:55;;;;;;;10.73;6.45;;;15.00;16.50;;;;;;5041607;28;20059;-79
2022/03/09 16:42:20;;;;;;;10.23;6.95;;;14.40;17.20;;;;;;5043169;28;20495;-79
2022/03/09 16:44:46;;;;;;;11.90;7.07;;;14.00;18.20;;;;;;5037306;28;20423;-80
2022/03/09 16:47:11;;;;;;;11.80;7.30;;;14.40;18.70;;;;;;5033239;28;20048;-80
2022/03/09 16:49:37;;;;;;;10.70;7.40;;;13.80;18.90;;;;;;5032092;28;20045;-79
2022/03/09 16:52:03;;;;;;;12.55;7.25;;;13.50;19.10;;;;;;5033407;28;20076;-80
2022/03/09 16:54:29;;;;;;;11.50;7.65;;;13.20;19.70;;;;;;5033349;28;20084;-80
2022/03/09 16:56:54;;;;;;;15.10;6.90;;;12.60;20.80;;;;;;5033265;28;20045;-80
2022/03/09 16:59:20;;;;;;;11.93;6.85;;;12.00;21.80;;;;;;5033137;28;20076;-79
2022/03/09 17:01:45;;;;;;;15.45;7.25;;;11.60;22.70;;;;;;5033004;28;20114;-79
2022/03/09 17:04:11;;;;;;;10.27;6.65;;;11.10;23.50;;;;;;5033252;28;20415;-79
2022/03/09 17:06:37;;;;;;;10.90;7.07;;;10.80;24.10;;;;;;5032475;28;20134;-79
2022/03/09 17:09:03;;;;;;;10.52;6.95;;;10.50;25.40;;;;;;5032353;28;20055;-79
2022/03/09 17:11:28;;;;;;;12.20;7.13;;;10.20;25.80;;;;;;5032894;28;20081;-79
2022/03/09 17:13:54;;;;;;;11.02;6.60;;;10.00;26.20;;;;;;5032735;28;20046;-79
2022/03/09 17:16:19;;;;;;;14.43;7.47;;;9.70;27.10;;;;;;5031775;28;20072;-79
2022/03/09 17:18:46;;;;;;;13.27;7.28;;;9.60;27.40;;;;;;5032487;28;20049;-81
2022/03/09 17:21:12;;;;;;;14.13;6.75;;;9.30;27.90;;;;;;5032769;28;20041;-79
2022/03/09 17:23:38;;;;;;;13.40;8.40;;;9.20;28.50;;;;;;5032640;28;20052;-79
2022/03/09 17:26:04;;;;;;;12.48;7.25;;;9.10;28.90;;;;;;5032472;28;20045;-79
2022/03/09 17:28:30;;;;;;;10.82;6.28;;;9.00;29.80;;;;;;5032586;28;20041;-79
2022/03/09 17:30:57;;;;;;;12.57;7.22;;;8.90;29.70;;;;;;5031380;28;20045;-79
2022/03/09 17:33:23;;;;;;;19.08;6.55;;;8.60;30.30;;;;;;5032408;28;20103;-79
2022/03/09 17:35:48;;;;;;;13.98;7.00;;;8.50;30.60;;;;;;5032234;28;20061;-79
2022/03/09 17:38:14;;;;;;;14.32;7.00;;;8.30;31.30;;;;;;5032753;28;20046;-81
2022/03/09 17:40:41;;;;;;;14.48;6.80;;;8.20;32.20;;;;;;5032639;28;20488;-79
2022/03/09 17:43:07;;;;;;;17.45;9.20;;;8.00;33.20;;;;;;5032092;28;20072;-79
2022/03/09 17:45:32;;;;;;;15.40;8.13;;;7.80;33.60;;;;;;5031568;28;20134;-80
2022/03/09 17:47:58;;;;;;;12.43;7.53;;;8.00;36.00;;;;;;5032253;28;20040;-79
2022/03/09 17:50:23;;;;;;;14.35;7.15;;;7.60;36.80;;;;;;5032149;28;20484;-79
2022/03/09 17:52:49;;;;;;;14.75;7.38;;;7.50;36.00;;;;;;5032114;28;20085;-80
2022/03/09 17:55:15;;;;;;;13.90;7.22;;;7.30;36.50;;;;;;5031961;28;20041;-80
2022/03/09 17:57:40;;;;;;;14.57;7.93;;;7.10;37.00;;;;;;5032090;28;20077;-80
2022/03/09 18:00:09;;;;;;;14.90;7.88;;;7.00;37.70;;;;;;5031811;28;20041;-80
2022/03/09 18:02:35;;;;;;;18.13;8.77;;;6.80;39.70;;;;;;5031810;28;20037;-80
2022/03/09 18:05:00;;;;;;;14.77;8.15;;;6.80;39.60;;;;;;5031783;28;20045;-80
2022/03/09 18:07:26;;;;;;;12.45;6.93;;;6.70;40.50;;;;;;5031798;28;20385;-80
2022/03/09 18:09:52;;;;;;;14.57;7.53;;;6.60;41.10;;;;;;5031657;28;20049;-80
2022/03/09 18:12:18;;;;;;;17.05;8.32;;;6.50;41.60;;;;;;5031710;28;20095;-80
2022/03/09 18:14:43;;;;;;;17.48;7.80;;;6.50;43.10;;;;;;5031721;28;20124;-80
2022/03/09 18:17:09;;;;;;;13.43;7.93;;;6.50;44.20;;;;;;5031504;28;20037;-80
2022/03/09 18:19:35;;;;;;;15.30;8.70;;;6.40;43.70;;;;;;5030895;28;20053;-80
2022/03/09 18:22:03;;;;;;;14.48;8.30;;;6.40;45.20;;;;;;5031700;28;20052;-80
2022/03/09 18:24:29;;;;;;;12.27;7.38;;;6.40;46.30;;;;;;5031050;28;20462;-80
2022/03/09 18:26:55;;;;;;;17.73;8.98;;;6.40;47.50;;;;;;5030207;28;20054;-80
2022/03/09 18:29:20;;;;;;;16.10;9.05;;;6.40;46.90;;;;;;5031365;28;20080;-80
2022/03/09 18:31:46;;;;;;;21.33;9.88;;;6.50;48.30;;;;;;5031779;28;20064;-80
2022/03/09 18:34:11;;;;;;;20.50;9.93;;;6.50;47.00;;;;;;5031345;28;20044;-80
2022/03/09 18:36:37;;;;;;;19.40;10.05;;;6.30;48.20;;;;;;5031333;28;20049;-80
2022/03/09 18:39:11;;;;;;;19.65;10.60;;;6.20;49.10;;;;;;5031567;28;20041;-80
2022/03/09 18:41:38;;;;;;;14.80;9.15;;;5.90;52.30;;;;;;5031283;28;20041;-80
2022/03/09 18:44:04;;;;;;;20.63;9.15;;;5.70;50.30;;;;;;5031493;28;20042;-80
2022/03/09 18:46:32;;;;;;;16.65;8.95;;;5.60;52.90;;;;;;5031111;28;20052;-80
2022/03/09 18:48:58;;;;;;;15.85;8.43;;;5.40;53.20;;;;;;5030827;28;20048;-80
2022/03/09 18:51:23;;;;;;;14.07;7.68;;;5.50;56.30;;;;;;5030610;28;20037;-80
2022/03/09 18:53:49;;;;;;;13.38;8.25;;;5.50;59.40;;;;;;5031111;28;20504;-79
2022/03/09 18:56:15;;;;;;;19.27;8.85;;;5.60;57.40;;;;;;5029693;28;20037;-79
2022/03/09 18:58:40;;;;;;;16.08;8.48;;;5.50;57.80;;;;;;5030679;28;20045;-79
2022/03/09 19:01:06;;;;;;;18.52;9.95;;;5.50;58.40;;;;;;5030903;28;20049;-79
2022/03/09 19:03:32;;;;;;;18.60;8.57;;;5.60;58.80;;;;;;5030882;28;20045;-79
2022/03/09 19:05:57;;;;;;;19.52;8.85;;;5.20;60.40;;;;;;5030070;28;20041;-79
2022/03/09 19:08:23;;;;;;;15.23;8.85;;;5.50;61.50;;;;;;5030592;28;20077;-80
2022/03/09 19:10:48;;;;;;;17.45;9.30;;;4.90;60.90;;;;;;5029372;28;20059;-80
2022/03/09 19:13:14;;;;;;;19.00;8.48;;;4.70;60.40;;;;;;5030380;28;20092;-80
2022/03/09 19:15:39;;;;;;;16.75;9.32;;;5.00;62.80;;;;;;5029331;28;20049;-79
2022/03/09 19:18:05;;;;;;;16.80;8.70;;;4.70;69.60;;;;;;5030332;28;20057;-79
2022/03/09 19:20:31;;;;;;;22.65;10.48;;;4.90;69.30;;;;;;5030510;28;20080;-79
2022/03/09 19:22:58;;;;;;;16.73;9.05;;;3.90;71.10;;;;;;5030581;28;20544;-79
2022/03/09 19:25:23;;;;;;;15.75;8.77;;;3.70;71.90;;;;;;5030360;28;20046;-79
2022/03/09 19:27:49;;;;;;;22.58;12.15;;;3.50;76.80;;;;;;5030559;28;20037;-79
2022/03/09 19:30:15;;;;;;;19.15;9.07;;;3.80;86.30;;;;;;5030671;28;20034;-80
2022/03/09 19:32:41;;;;;;;21.48;9.85;;;3.20;96.50;;;;;;5032821;28;20071;-80
2022/03/09 19:35:08;;;;;;;19.92;10.25;;;3.10;98.80;;;;;;5044328;28;20475;-80
2022/03/09 19:37:34;;;;;;;19.27;10.02;;;3.00;99.00;;;;;;5040141;28;20111;-79
2022/03/09 19:39:59;;;;;;;19.75;9.77;;;2.90;99.90;;;;;;5030162;28;20064;-79
2022/03/09 19:42:25;;;;;;;24.33;10.50;;;2.80;99.90;;;;;;5030096;28;20037;-79
2022/03/09 19:44:50;;;;;;;18.67;11.38;;;2.80;99.90;;;;;;5029774;28;20120;-79
2022/03/09 19:47:16;;;;;;;15.23;9.48;;;2.80;99.90;;;;;;5030083;28;20045;-79
2022/03/09 19:49:42;;;;;;;24.48;9.50;;;3.00;99.90;;;;;;5030182;28;20045;-79
2022/03/09 19:52:09;;;;;;;21.13;9.68;;;3.10;99.90;;;;;;5030715;28;20064;-79
2022/03/09 19:54:36;;;;;;;19.02;9.82;;;2.50;99.90;;;;;;5030260;28;20050;-79
2022/03/09 19:57:02;;;;;;;24.70;11.73;;;2.30;99.90;;;;;;5029775;28;20052;-79
2022/03/09 19:59:28;;;;;;;20.48;10.98;;;2.20;99.90;;;;;;5021411;28;20040;-79
2022/03/09 20:01:56;;;;;;;25.88;12.32;;;2.30;99.90;;;;;;5039639;28;20155;-79
2022/03/09 20:04:22;;;;;;;22.70;11.13;;;2.50;99.90;;;;;;5036863;28;20049;-79
2022/03/09 20:06:48;;;;;;;26.55;12.15;;;2.50;99.90;;;;;;5048610;28;20562;-79
2022/03/09 20:09:15;;;;;;;21.02;11.02;;;2.40;99.90;;;;;;5049769;28;20559;-79
2022/03/09 20:11:41;;;;;;;22.10;11.10;;;2.20;99.90;;;;;;5042834;28;20488;-79
2022/03/09 20:14:06;;;;;;;19.17;10.82;;;2.00;99.90;;;;;;5029018;28;20041;-79
2022/03/09 20:16:32;;;;;;;24.63;11.45;;;1.80;99.90;;;;;;5028802;28;20054;-79
2022/03/09 20:18:58;;;;;;;21.58;11.43;;;1.70;99.90;;;;;;5030048;28;20064;-79
2022/03/09 20:21:23;;;;;;;19.50;9.80;;;1.70;99.90;;;;;;5029970;28;20045;-80